createdAt,value
2023-05-19T00:01:19.252Z,89.20
2023-05-19T00:03:46.906Z,89.55
2023-05-19T00:06:14.707Z,89.37
2023-05-19T00:08:42.504Z,89.03
2023-05-19T00:11:10.149Z,89.14
2023-05-19T00:13:37.796Z,89.14
2023-05-19T00:16:06.338Z,89.25
2023-05-19T00:18:34.814Z,89.35
2023-05-19T00:21:02.512Z,89.13
2023-05-19T00:23:30.154Z,88.96
2023-05-19T00:25:57.835Z,89.15
2023-05-19T00:28:25.588Z,89.03
2023-05-19T00:30:53.240Z,89.59
2023-05-19T00:33:21.020Z,89.51
2023-05-19T00:35:48.666Z,89.21
2023-05-19T00:38:16.340Z,89.02
2023-05-19T00:40:43.996Z,89.18
2023-05-19T00:43:11.661Z,89.11
2023-05-19T00:45:39.368Z,89.43
2023-05-19T00:48:07.091Z,89.10
2023-05-19T00:50:34.868Z,89.43
2023-05-19T00:53:02.829Z,89.33
2023-05-19T00:55:30.613Z,89.46
2023-05-19T00:57:58.290Z,89.65
2023-05-19T01:00:25.970Z,89.69
2023-05-19T01:02:54.554Z,89.50
2023-05-19T01:05:22.350Z,89.62
2023-05-19T01:07:53.797Z,90.05
2023-05-19T01:10:21.448Z,90.00
2023-05-19T01:12:49.136Z,90.13
2023-05-19T01:15:16.863Z,90.07
2023-05-19T01:17:45.121Z,89.94
2023-05-19T01:20:13.736Z,90.22
2023-05-19T01:22:43.141Z,90.21
2023-05-19T01:25:11.116Z,90.02
2023-05-19T01:27:38.765Z,90.08
2023-05-19T01:30:07.054Z,89.92
2023-05-19T01:32:34.744Z,89.55
2023-05-19T01:35:02.500Z,89.54
2023-05-19T01:37:30.153Z,89.77
2023-05-19T01:39:57.812Z,89.66
2023-05-19T01:42:25.442Z,89.50
2023-05-19T01:44:53.459Z,89.44
2023-05-19T01:47:21.124Z,89.22
2023-05-19T01:49:48.770Z,89.38
2023-05-19T01:52:16.465Z,89.64
2023-05-19T01:54:44.145Z,89.41
2023-05-19T01:57:11.908Z,89.34
2023-05-19T01:59:39.589Z,88.73
2023-05-19T02:02:07.234Z,88.82
2023-05-19T02:04:39.972Z,88.78
2023-05-19T02:07:07.815Z,88.93
2023-05-19T02:09:35.702Z,89.01
2023-05-19T02:12:03.348Z,88.67
2023-05-19T02:14:31.077Z,88.32
2023-05-19T02:16:59.504Z,88.56
2023-05-19T02:19:27.270Z,88.90
2023-05-19T02:21:55.113Z,89.20
2023-05-19T02:24:23.165Z,88.88
2023-05-19T02:26:51.969Z,88.72
2023-05-19T02:29:19.901Z,88.81
2023-05-19T02:31:47.702Z,88.79
2023-05-19T02:34:15.663Z,88.78
2023-05-19T02:36:43.431Z,88.44
2023-05-19T02:39:11.396Z,88.69
2023-05-19T02:41:39.162Z,88.48
2023-05-19T02:44:07.846Z,88.61
2023-05-19T02:46:35.626Z,88.72
2023-05-19T02:49:03.510Z,88.87
2023-05-19T02:51:31.348Z,88.71
2023-05-19T02:53:59.211Z,88.60
2023-05-19T02:56:28.330Z,88.44
2023-05-19T02:58:56.696Z,88.42
2023-05-19T03:01:24.465Z,88.58
2023-05-19T03:03:52.290Z,88.75
2023-05-19T03:06:20.190Z,88.59
2023-05-19T03:08:47.947Z,88.41
2023-05-19T03:11:15.709Z,88.87
2023-05-19T03:13:43.478Z,88.30
2023-05-19T03:16:12.229Z,88.50
2023-05-19T03:18:40.201Z,88.71
2023-05-19T03:21:08.012Z,88.93
2023-05-19T03:23:36.070Z,88.86
2023-05-19T03:26:04.493Z,88.50
2023-05-19T03:28:32.214Z,88.35
2023-05-19T03:30:59.982Z,88.39
2023-05-19T03:33:30.132Z,88.61
2023-05-19T03:35:57.970Z,88.80
2023-05-19T03:38:25.834Z,88.97
2023-05-19T03:40:54.112Z,88.96
2023-05-19T03:43:21.871Z,88.81
2023-05-19T03:45:49.657Z,89.10
2023-05-19T03:48:19.146Z,89.21
2023-05-19T03:50:49.779Z,89.17
2023-05-19T03:53:17.538Z,88.98
2023-05-19T03:55:45.916Z,88.61
2023-05-19T03:58:14.911Z,88.34
2023-05-19T04:00:42.875Z,88.68
2023-05-19T04:03:11.116Z,88.72
2023-05-19T04:05:39.024Z,88.76
2023-05-19T04:08:06.784Z,88.79
2023-05-19T04:10:34.689Z,88.57
2023-05-19T04:13:02.572Z,88.60
2023-05-19T04:15:30.430Z,88.77
2023-05-19T04:17:58.334Z,88.61
2023-05-19T04:20:26.129Z,88.60
2023-05-19T04:22:53.790Z,88.69
2023-05-19T04:25:21.448Z,88.27
2023-05-19T04:27:49.223Z,88.35
2023-05-19T04:30:22.561Z,88.39
2023-05-19T04:32:53.507Z,88.27
2023-05-19T04:35:21.186Z,88.36
2023-05-19T04:37:48.847Z,88.11
2023-05-19T04:40:17.595Z,88.25
2023-05-19T04:42:46.215Z,88.53
2023-05-19T04:45:14.333Z,88.39
2023-05-19T04:47:42.690Z,88.56
2023-05-19T04:50:11.389Z,88.54
2023-05-19T04:52:39.100Z,88.43
2023-05-19T04:55:06.768Z,88.30
2023-05-19T04:57:34.702Z,88.67
2023-05-19T05:00:02.409Z,88.54
2023-05-19T05:02:30.324Z,88.62
2023-05-19T05:04:58.364Z,88.51
2023-05-19T05:07:26.128Z,88.18
2023-05-19T05:09:53.904Z,88.13
2023-05-19T05:12:21.767Z,88.25
2023-05-19T05:14:49.528Z,88.40
2023-05-19T05:17:17.285Z,88.46
2023-05-19T05:19:45.051Z,88.33
2023-05-19T05:22:12.824Z,88.02
2023-05-19T05:24:40.579Z,88.01
2023-05-19T05:27:10.483Z,88.00
2023-05-19T05:29:38.369Z,88.10
2023-05-19T05:32:06.351Z,88.06
2023-05-19T05:34:34.091Z,88.06
2023-05-19T05:37:01.758Z,87.84
2023-05-19T05:39:29.743Z,87.63
2023-05-19T05:41:57.437Z,87.78
2023-05-19T05:44:25.069Z,87.79
2023-05-19T05:46:52.728Z,87.95
2023-05-19T05:49:20.565Z,87.78
2023-05-19T05:52:01.499Z,87.36
2023-05-19T05:54:33.189Z,87.38
2023-05-19T05:57:00.874Z,87.48
2023-05-19T05:59:28.525Z,87.55
2023-05-19T06:01:56.205Z,87.85
2023-05-19T06:04:23.897Z,87.53
2023-05-19T06:06:52.877Z,87.46
2023-05-19T06:09:20.853Z,87.43
2023-05-19T06:11:48.558Z,87.35
2023-05-19T06:14:16.448Z,87.32
2023-05-19T06:16:44.187Z,87.00
2023-05-19T06:19:12.218Z,86.77
2023-05-19T06:21:40.047Z,87.03
2023-05-19T06:24:07.786Z,86.91
2023-05-19T06:26:35.509Z,86.77
2023-05-19T06:29:03.276Z,87.17
2023-05-19T06:31:31.578Z,87.12
2023-05-19T06:33:59.252Z,87.16
2023-05-19T06:36:27.052Z,86.87
2023-05-19T06:38:54.909Z,86.90
2023-05-19T06:41:22.675Z,87.08
2023-05-19T06:43:50.540Z,87.05
2023-05-19T06:46:18.480Z,87.07
2023-05-19T06:48:46.378Z,87.25
2023-05-19T06:51:15.688Z,87.09
2023-05-19T06:53:43.442Z,86.91
2023-05-19T06:56:11.209Z,86.65
2023-05-19T06:58:39.787Z,86.89
2023-05-19T07:01:07.560Z,86.94
2023-05-19T07:03:35.682Z,87.09
2023-05-19T07:06:05.055Z,86.80
2023-05-19T07:08:35.454Z,86.71
2023-05-19T07:11:03.220Z,86.54
2023-05-19T07:13:31.288Z,86.71
2023-05-19T07:15:59.069Z,86.98
2023-05-19T07:18:27.229Z,87.07
2023-05-19T07:20:54.997Z,86.99
2023-05-19T07:23:22.854Z,86.21
2023-05-19T07:25:50.830Z,86.25
2023-05-19T07:28:18.590Z,86.57
2023-05-19T07:30:46.377Z,86.46
2023-05-19T07:33:14.204Z,86.63
2023-05-19T07:35:42.098Z,86.27
2023-05-19T07:38:09.850Z,86.33
2023-05-19T07:40:37.685Z,86.52
2023-05-19T07:43:05.984Z,86.97
2023-05-19T07:45:33.880Z,87.10
2023-05-19T07:48:01.755Z,87.20
2023-05-19T07:50:29.633Z,86.76
2023-05-19T07:52:57.562Z,86.82
2023-05-19T07:55:25.329Z,86.77
2023-05-19T07:57:53.088Z,86.87
2023-05-19T08:00:20.955Z,86.79
2023-05-19T08:02:48.855Z,86.72
2023-05-19T08:05:16.692Z,86.88
2023-05-19T08:07:44.571Z,86.76
2023-05-19T08:10:12.530Z,86.31
2023-05-19T08:12:40.305Z,86.05
2023-05-19T08:15:08.261Z,86.17
2023-05-19T08:17:36.037Z,85.94
2023-05-19T08:20:05.360Z,86.14
2023-05-19T08:22:33.202Z,86.43
2023-05-19T08:25:01.671Z,86.04
2023-05-19T08:27:30.258Z,86.06
2023-05-19T08:29:58.227Z,86.03
2023-05-19T08:32:26.274Z,86.37
2023-05-19T08:34:54.269Z,86.31
2023-05-19T08:37:22.233Z,85.77
2023-05-19T08:39:50.108Z,86.05
2023-05-19T08:42:17.868Z,85.71
2023-05-19T08:44:45.645Z,85.85
2023-05-19T08:47:14.109Z,85.85
2023-05-19T08:49:41.876Z,86.07
2023-05-19T08:52:09.742Z,86.05
2023-05-19T08:54:37.515Z,86.00
2023-05-19T08:57:06.202Z,85.83
2023-05-19T08:59:34.058Z,85.34
2023-05-19T09:02:01.829Z,85.55
2023-05-19T09:04:30.327Z,85.92
2023-05-19T09:06:59.090Z,86.03
2023-05-19T09:09:26.958Z,86.08
2023-05-19T09:11:54.722Z,85.94
2023-05-19T09:14:22.485Z,85.64
2023-05-19T09:16:53.001Z,85.69
2023-05-19T09:19:21.555Z,85.70
2023-05-19T09:21:50.216Z,85.86
2023-05-19T09:24:17.975Z,85.78
2023-05-19T09:26:45.820Z,85.77
2023-05-19T09:29:13.542Z,85.95
2023-05-19T09:31:41.593Z,85.77
2023-05-19T09:34:09.387Z,85.65
2023-05-19T09:36:37.593Z,85.80
2023-05-19T09:39:05.330Z,85.87
2023-05-19T09:41:33.152Z,85.87
2023-05-19T09:44:00.845Z,86.00
2023-05-19T09:46:28.660Z,86.04
2023-05-19T09:48:56.836Z,86.26
2023-05-19T09:51:24.787Z,86.16
2023-05-19T09:53:52.572Z,85.78
2023-05-19T09:56:23.915Z,86.00
2023-05-19T09:58:51.666Z,86.10
2023-05-19T10:01:19.389Z,85.84
2023-05-19T10:03:47.620Z,85.74
2023-05-19T10:06:15.770Z,85.89
2023-05-19T10:08:43.776Z,85.74
2023-05-19T10:11:11.524Z,85.63
2023-05-19T10:13:39.379Z,85.23
2023-05-19T10:16:07.127Z,85.85
2023-05-19T10:18:34.845Z,85.77
2023-05-19T10:21:02.991Z,85.75
2023-05-19T10:23:30.731Z,85.94
2023-05-19T10:25:58.504Z,85.92
2023-05-19T10:28:28.281Z,85.80
2023-05-19T10:30:56.289Z,85.85
2023-05-19T10:33:24.090Z,85.91
2023-05-19T10:35:52.025Z,85.25
2023-05-19T10:38:19.881Z,85.56
2023-05-19T10:40:47.645Z,85.73
2023-05-19T10:43:15.414Z,85.73
2023-05-19T10:45:43.296Z,85.35
2023-05-19T10:48:13.510Z,85.13
2023-05-19T10:50:41.266Z,85.52
2023-05-19T10:53:09.041Z,85.39
2023-05-19T10:55:37.419Z,85.42
2023-05-19T10:58:05.386Z,85.75
2023-05-19T11:00:33.266Z,85.67
2023-05-19T11:03:01.034Z,86.11
2023-05-19T11:05:28.879Z,85.67
2023-05-19T11:07:56.639Z,85.31
2023-05-19T11:10:24.410Z,85.47
2023-05-19T11:12:52.412Z,85.41
2023-05-19T11:15:20.240Z,85.19
2023-05-19T11:17:48.802Z,85.64
2023-05-19T11:20:16.595Z,85.75
2023-05-19T11:22:44.352Z,85.64
2023-05-19T11:25:12.129Z,85.56
2023-05-19T11:27:40.388Z,85.36
2023-05-19T11:30:09.616Z,85.38
2023-05-19T11:32:42.414Z,85.39
2023-05-19T11:35:10.445Z,85.28
2023-05-19T11:37:38.312Z,85.27
2023-05-19T11:40:09.292Z,85.15
2023-05-19T11:42:37.303Z,85.31
2023-05-19T11:45:05.151Z,85.18
2023-05-19T11:47:46.473Z,85.26
2023-05-19T11:50:23.437Z,84.94
2023-05-19T11:52:51.188Z,84.49
2023-05-19T11:55:18.855Z,84.44
2023-05-19T11:57:56.065Z,84.56
2023-05-19T12:00:31.506Z,84.89
2023-05-19T12:02:59.486Z,84.87
2023-05-19T12:05:29.084Z,84.94
2023-05-19T12:07:56.819Z,84.63
2023-05-19T12:10:24.565Z,84.74
2023-05-19T12:12:52.231Z,84.71
2023-05-19T12:15:21.185Z,84.76
2023-05-19T12:17:48.879Z,84.94
2023-05-19T12:20:16.638Z,84.93
2023-05-19T12:22:44.357Z,84.80
2023-05-19T12:25:11.996Z,84.82
2023-05-19T12:27:39.625Z,84.73
2023-05-19T12:30:07.404Z,84.70
2023-05-19T12:32:38.043Z,84.34
2023-05-19T12:35:06.062Z,84.49
2023-05-19T12:37:35.031Z,84.69
2023-05-19T12:40:03.843Z,84.65
2023-05-19T12:42:31.789Z,84.46
2023-05-19T12:45:00.702Z,84.59
2023-05-19T12:47:29.610Z,84.55
2023-05-19T12:49:57.303Z,84.34
2023-05-19T12:52:25.027Z,84.23
2023-05-19T12:54:53.249Z,84.27
2023-05-19T12:57:21.670Z,84.47
2023-05-19T12:59:49.926Z,84.76
2023-05-19T13:02:18.388Z,84.65
2023-05-19T13:04:46.222Z,84.54
2023-05-19T13:07:13.874Z,84.43
2023-05-19T13:09:41.582Z,84.53
2023-05-19T13:12:09.218Z,84.41
2023-05-19T13:14:37.871Z,84.53
2023-05-19T13:17:06.293Z,84.52
2023-05-19T13:19:34.244Z,84.49
2023-05-19T13:22:02.577Z,84.62
2023-05-19T13:24:30.845Z,84.67
2023-05-19T13:26:58.714Z,84.82
2023-05-19T13:29:28.344Z,84.69
2023-05-19T13:31:56.214Z,84.78
2023-05-19T13:34:23.998Z,84.62
2023-05-19T13:36:51.733Z,84.63
2023-05-19T13:39:19.411Z,84.50
2023-05-19T13:41:47.075Z,84.63
2023-05-19T13:44:14.836Z,84.73
2023-05-19T13:46:45.577Z,84.67
2023-05-19T13:49:14.632Z,84.74
2023-05-19T13:51:42.323Z,84.57
2023-05-19T13:54:10.270Z,84.44
2023-05-19T13:56:38.257Z,84.03
2023-05-19T13:59:05.901Z,84.04
2023-05-19T14:01:33.782Z,84.16
2023-05-19T14:04:01.658Z,84.37
2023-05-19T14:06:29.772Z,84.57
2023-05-19T14:08:57.473Z,84.60
2023-05-19T14:11:25.183Z,84.21
2023-05-19T14:13:53.272Z,84.41
2023-05-19T14:16:23.148Z,84.79
2023-05-19T14:18:51.007Z,84.91
2023-05-19T14:21:18.691Z,84.98
2023-05-19T14:23:46.533Z,84.93
2023-05-19T14:26:14.166Z,84.26
2023-05-19T14:28:41.846Z,84.49
2023-05-19T14:31:09.538Z,84.78
2023-05-19T14:33:37.223Z,84.94
2023-05-19T14:36:05.672Z,84.71
2023-05-19T14:38:33.365Z,84.70
2023-05-19T14:41:01.083Z,84.50
2023-05-19T14:43:28.764Z,84.62
2023-05-19T14:45:56.496Z,84.56
2023-05-19T14:48:24.145Z,84.77
2023-05-19T14:50:52.113Z,84.65
2023-05-19T14:53:19.797Z,84.43
2023-05-19T14:55:47.418Z,83.90
2023-05-19T14:58:27.636Z,83.00
2023-05-19T15:00:56.438Z,84.03
2023-05-19T15:03:24.118Z,84.39
2023-05-19T15:05:51.919Z,84.39
2023-05-19T15:08:19.589Z,84.21
2023-05-19T15:10:47.395Z,84.23
2023-05-19T15:13:15.199Z,84.24
2023-05-19T15:15:42.973Z,84.18
2023-05-19T15:18:11.688Z,84.53
2023-05-19T15:20:39.527Z,84.46
2023-05-19T15:23:07.282Z,84.37
2023-05-19T15:25:35.047Z,84.46
2023-05-19T15:28:02.816Z,84.35
2023-05-19T15:30:30.678Z,84.07
2023-05-19T15:32:58.998Z,84.23
2023-05-19T15:35:26.922Z,84.25
2023-05-19T15:37:54.693Z,84.46
2023-05-19T15:40:22.575Z,84.48
2023-05-19T15:42:50.323Z,84.39
2023-05-19T15:45:18.136Z,84.15
2023-05-19T15:47:46.033Z,84.01
2023-05-19T15:50:14.835Z,84.04
2023-05-19T15:52:43.376Z,84.15
2023-05-19T15:55:11.125Z,84.22
2023-05-19T15:57:38.828Z,84.25
2023-05-19T16:00:06.509Z,84.47
2023-05-19T16:02:34.487Z,84.18
2023-05-19T16:05:02.197Z,84.42
2023-05-19T16:07:29.874Z,84.63
2023-05-19T16:09:57.807Z,84.83
2023-05-19T16:12:27.592Z,84.65
2023-05-19T16:14:55.586Z,84.48
2023-05-19T16:17:23.228Z,84.62
2023-05-19T16:19:50.890Z,84.06
2023-05-19T16:22:18.673Z,84.09
2023-05-19T16:24:46.324Z,84.35
2023-05-19T16:27:14.172Z,84.43
2023-05-19T16:29:41.940Z,84.42
2023-05-19T16:32:09.809Z,84.28
2023-05-19T16:34:37.773Z,84.18
2023-05-19T16:37:05.540Z,84.51
2023-05-19T16:39:33.405Z,84.40
2023-05-19T16:42:01.115Z,84.70
2023-05-19T16:44:28.932Z,84.67
2023-05-19T16:46:56.905Z,84.62
2023-05-19T16:49:24.670Z,84.56
2023-05-19T16:51:53.301Z,84.29
2023-05-19T16:54:21.627Z,84.46
2023-05-19T16:56:49.387Z,84.48
2023-05-19T16:59:17.669Z,84.24
2023-05-19T17:01:45.711Z,84.47
2023-05-19T17:04:13.609Z,84.49
2023-05-19T17:06:41.377Z,84.52
2023-05-19T17:09:09.131Z,84.54
2023-05-19T17:11:36.907Z,84.53
2023-05-19T17:14:08.042Z,84.38
2023-05-19T17:16:36.096Z,84.50
2023-05-19T17:19:04.124Z,84.58
2023-05-19T17:21:32.151Z,84.62
2023-05-19T17:23:59.917Z,84.40
2023-05-19T17:26:27.984Z,84.97
2023-05-19T17:28:55.852Z,85.16
2023-05-19T17:31:23.623Z,85.12
2023-05-19T17:33:51.381Z,85.12
2023-05-19T17:36:19.148Z,85.18
2023-05-19T17:38:47.011Z,85.11
2023-05-19T17:41:14.784Z,84.93
2023-05-19T17:43:42.641Z,85.34
2023-05-19T17:46:10.475Z,85.56
2023-05-19T17:48:38.280Z,85.28
2023-05-19T17:51:07.833Z,85.33
2023-05-19T17:53:35.763Z,85.03
2023-05-19T17:56:03.617Z,85.06
2023-05-19T17:58:31.598Z,84.95
2023-05-19T18:00:59.353Z,85.26
2023-05-19T18:03:27.365Z,85.46
2023-05-19T18:05:55.387Z,85.58
2023-05-19T18:08:23.174Z,85.34
2023-05-19T18:10:52.884Z,85.38
2023-05-19T18:13:21.648Z,85.57
2023-05-19T18:15:50.063Z,85.34
2023-05-19T18:18:17.904Z,85.40
2023-05-19T18:20:46.069Z,85.56
2023-05-19T18:23:13.934Z,85.36
2023-05-19T18:25:41.707Z,85.31
2023-05-19T18:28:09.430Z,85.18
2023-05-19T18:30:37.226Z,85.22
2023-05-19T18:33:06.235Z,85.33
2023-05-19T18:35:34.096Z,85.33
2023-05-19T18:38:02.081Z,85.26
2023-05-19T18:40:29.814Z,85.09
2023-05-19T18:42:57.479Z,85.32
2023-05-19T18:45:25.118Z,85.41
2023-05-19T18:47:53.185Z,85.25
2023-05-19T18:50:20.905Z,85.32
2023-05-19T18:52:48.613Z,85.30
2023-05-19T18:55:16.500Z,85.05
2023-05-19T18:57:44.152Z,84.91
2023-05-19T19:00:11.875Z,85.06
2023-05-19T19:02:39.936Z,85.25
2023-05-19T19:05:09.717Z,85.34
2023-05-19T19:07:37.426Z,85.38
2023-05-19T19:10:05.084Z,85.01
2023-05-19T19:12:32.759Z,85.05
2023-05-19T19:15:00.424Z,85.14
2023-05-19T19:17:28.140Z,85.36
2023-05-19T19:19:56.154Z,85.50
2023-05-19T19:22:23.993Z,85.56
2023-05-19T19:24:51.695Z,85.39
2023-05-19T19:27:21.059Z,85.49
2023-05-19T19:29:48.758Z,85.45
2023-05-19T19:32:16.537Z,85.39
2023-05-19T19:34:44.188Z,85.44
2023-05-19T19:37:11.943Z,85.33
2023-05-19T19:39:39.650Z,85.20
2023-05-19T19:42:07.306Z,85.27
2023-05-19T19:44:34.990Z,85.14
2023-05-19T19:47:06.423Z,85.62
2023-05-19T19:49:34.180Z,85.49
2023-05-19T19:52:02.058Z,85.56
2023-05-19T19:54:29.812Z,85.53
2023-05-19T19:56:58.802Z,85.43
2023-05-19T19:59:26.956Z,85.44
2023-05-19T20:01:55.006Z,85.62
2023-05-19T20:04:23.128Z,85.59
2023-05-19T20:06:51.124Z,85.62
2023-05-19T20:09:18.931Z,85.79
2023-05-19T20:11:46.722Z,85.72
2023-05-19T20:14:14.494Z,85.46
2023-05-19T20:16:42.448Z,85.62
2023-05-19T20:19:12.071Z,85.73
2023-05-19T20:21:39.831Z,85.79
2023-05-19T20:24:07.797Z,85.76
2023-05-19T20:26:35.560Z,85.49
2023-05-19T20:29:03.325Z,85.70
2023-05-19T20:31:31.301Z,85.92
2023-05-19T20:34:00.151Z,85.95
2023-05-19T20:36:29.586Z,86.18
2023-05-19T20:38:57.459Z,86.19
2023-05-19T20:41:25.216Z,86.34
2023-05-19T20:43:53.287Z,86.33
2023-05-19T20:46:21.672Z,86.42
2023-05-19T20:48:49.536Z,86.30
2023-05-19T20:51:17.165Z,86.21
2023-05-19T20:53:44.823Z,86.32
2023-05-19T20:56:12.530Z,86.27
2023-05-19T20:58:40.394Z,86.18
2023-05-19T21:01:08.167Z,86.60
2023-05-19T21:03:36.224Z,86.92
2023-05-19T21:06:04.098Z,86.90
2023-05-19T21:08:31.854Z,86.86
2023-05-19T21:11:01.074Z,86.79
2023-05-19T21:13:28.922Z,86.81
2023-05-19T21:15:56.688Z,86.83
2023-05-19T21:18:24.556Z,87.07
2023-05-19T21:20:52.318Z,87.28
2023-05-19T21:23:20.201Z,87.08
2023-05-19T21:25:47.946Z,86.99
2023-05-19T21:28:15.915Z,86.87
2023-05-19T21:30:44.609Z,87.13
2023-05-19T21:33:12.518Z,87.14
2023-05-19T21:35:40.331Z,87.09
2023-05-19T21:38:22.190Z,86.99
2023-05-19T21:40:51.012Z,87.03
2023-05-19T21:43:19.562Z,87.09
2023-05-19T21:45:47.257Z,87.16
2023-05-19T21:48:14.985Z,87.07
2023-05-19T21:50:42.643Z,86.73
2023-05-19T21:53:10.315Z,86.61
2023-05-19T21:55:39.393Z,86.89
2023-05-19T21:58:07.121Z,87.00
2023-05-19T22:00:36.857Z,86.94
2023-05-19T22:03:04.936Z,86.75
2023-05-19T22:05:35.371Z,86.77
2023-05-19T22:08:03.120Z,86.66
2023-05-19T22:10:30.826Z,86.73
2023-05-19T22:12:58.589Z,86.98
2023-05-19T22:15:26.892Z,86.81
2023-05-19T22:17:54.628Z,86.87
2023-05-19T22:20:22.338Z,87.04
2023-05-19T22:22:50.003Z,86.72
2023-05-19T22:25:17.647Z,86.67
2023-05-19T22:27:45.325Z,86.92
2023-05-19T22:30:13.058Z,87.26
2023-05-19T22:32:40.721Z,87.07
2023-05-19T22:35:08.555Z,86.95
2023-05-19T22:37:36.231Z,86.67
2023-05-19T22:40:03.910Z,87.10
2023-05-19T22:42:31.572Z,87.33
2023-05-19T22:44:59.301Z,87.36
2023-05-19T22:47:26.964Z,87.37
2023-05-19T22:49:55.665Z,87.15
2023-05-19T22:52:24.842Z,86.81
2023-05-19T22:54:52.492Z,87.00
2023-05-19T22:57:20.311Z,87.19
2023-05-19T22:59:47.957Z,87.37
2023-05-19T23:02:15.933Z,87.04
2023-05-19T23:04:43.620Z,87.39
2023-05-19T23:07:11.297Z,87.42
2023-05-19T23:09:39.325Z,87.31
2023-05-19T23:12:07.161Z,87.35
2023-05-19T23:14:34.853Z,87.72
2023-05-19T23:17:02.620Z,87.54
2023-05-19T23:19:32.046Z,87.27
2023-05-19T23:21:59.728Z,87.42
2023-05-19T23:24:27.442Z,87.33
2023-05-19T23:26:55.152Z,87.68
2023-05-19T23:29:22.923Z,87.52
2023-05-19T23:31:50.639Z,87.22
2023-05-19T23:34:18.386Z,87.03
2023-05-19T23:36:46.046Z,87.38
2023-05-19T23:39:13.740Z,87.78
2023-05-19T23:41:41.516Z,87.78
2023-05-19T23:44:09.393Z,87.72
2023-05-19T23:46:37.093Z,87.59
2023-05-19T23:49:04.836Z,87.69
2023-05-19T23:51:32.560Z,87.99
2023-05-19T23:54:00.269Z,87.98
2023-05-19T23:56:27.940Z,87.88
2023-05-19T23:58:55.588Z,87.59
